sensor_id;sensor_type;location;lat;lon;timestamp;pressure;altitude;pressure_sealevel;temperature;humidity
2681;BME280;1350;42.134;24.708;2023-04-20T00:00:43;98968.81;;;12.35;100.00
2681;BME280;1350;42.134;24.708;2023-04-20T00:03:09;98966.69;;;12.52;100.00
2681;BME280;1350;42.134;24.708;2023-04-20T00:05:36;98968.09;;;12.45;100.00
2681;BME280;1350;42.134;24.708;2023-04-20T00:08:05;98963.91;;;12.41;100.00
2681;BME280;1350;42.134;24.708;2023-04-20T00:10:32;98960.44;;;12.41;100.00
2681;BME280;1350;42.134;24.708;2023-04-20T00:12:59;98968.19;;;12.44;100.00
2681;BME280;1350;42.134;24.708;2023-04-20T00:15:25;98957.25;;;12.36;100.00
2681;BME280;1350;42.134;24.708;2023-04-20T00:17:52;98961.25;;;12.41;100.00
2681;BME280;1350;42.134;24.708;2023-04-20T00:20:19;98955.13;;;12.28;100.00
2681;BME280;1350;42.134;24.708;2023-04-20T00:22:45;98958.38;;;12.32;100.00
2681;BME280;1350;42.134;24.708;2023-04-20T00:25:14;98953.59;;;12.12;100.00
2681;BME280;1350;42.134;24.708;2023-04-20T00:27:40;98953.09;;;12.07;100.00
2681;BME280;1350;42.134;24.708;2023-04-20T00:30:08;98947.88;;;12.05;100.00
2681;BME280;1350;42.134;24.708;2023-04-20T00:32:35;98949.00;;;11.88;100.00
2681;BME280;1350;42.134;24.708;2023-04-20T00:35:02;98946.84;;;11.81;100.00
2681;BME280;1350;42.134;24.708;2023-04-20T00:37:29;98950.44;;;11.67;100.00
2681;BME280;1350;42.134;24.708;2023-04-20T00:39:56;98943.44;;;11.66;100.00
2681;BME280;1350;42.134;24.708;2023-04-20T00:42:24;98948.16;;;11.61;100.00
2681;BME280;1350;42.134;24.708;2023-04-20T00:44:51;98946.38;;;11.62;100.00
2681;BME280;1350;42.134;24.708;2023-04-20T00:47:18;98952.41;;;11.51;100.00
2681;BME280;1350;42.134;24.708;2023-04-20T00:49:44;98947.72;;;11.55;100.00
2681;BME280;1350;42.134;24.708;2023-04-20T00:52:11;98953.53;;;11.47;100.00
2681;BME280;1350;42.134;24.708;2023-04-20T00:54:38;98953.75;;;11.44;100.00
2681;BME280;1350;42.134;24.708;2023-04-20T00:57:06;98958.38;;;11.41;100.00
2681;BME280;1350;42.134;24.708;2023-04-20T00:59:34;98959.81;;;11.46;100.00
2681;BME280;1350;42.134;24.708;2023-04-20T01:02:01;98955.69;;;11.55;100.00
2681;BME280;1350;42.134;24.708;2023-04-20T01:04:28;98954.19;;;11.51;100.00
2681;BME280;1350;42.134;24.708;2023-04-20T01:06:54;98958.84;;;11.47;100.00
2681;BME280;1350;42.134;24.708;2023-04-20T01:09:21;98958.13;;;11.45;100.00
2681;BME280;1350;42.134;24.708;2023-04-20T01:11:48;98954.91;;;11.40;100.00
2681;BME280;1350;42.134;24.708;2023-04-20T01:14:15;98951.09;;;11.44;100.00
2681;BME280;1350;42.134;24.708;2023-04-20T01:16:43;98953.75;;;11.44;100.00
2681;BME280;1350;42.134;24.708;2023-04-20T01:19:11;98955.63;;;11.42;100.00
2681;BME280;1350;42.134;24.708;2023-04-20T01:21:38;98956.00;;;11.50;100.00
2681;BME280;1350;42.134;24.708;2023-04-20T01:24:07;98947.81;;;11.53;100.00
2681;BME280;1350;42.134;24.708;2023-04-20T01:26:34;98950.47;;;11.53;100.00
2681;BME280;1350;42.134;24.708;2023-04-20T01:29:01;98949.84;;;11.50;100.00
2681;BME280;1350;42.134;24.708;2023-04-20T01:31:27;98950.47;;;11.53;100.00
2681;BME280;1350;42.134;24.708;2023-04-20T01:33:54;98948.16;;;11.61;100.00
2681;BME280;1350;42.134;24.708;2023-04-20T01:36:21;98946.84;;;11.68;100.00
2681;BME280;1350;42.134;24.708;2023-04-20T01:38:48;98953.84;;;11.69;100.00
2681;BME280;1350;42.134;24.708;2023-04-20T01:41:16;98947.81;;;11.80;100.00
2681;BME280;1350;42.134;24.708;2023-04-20T01:43:43;98947.72;;;11.81;100.00
2681;BME280;1350;42.134;24.708;2023-04-20T01:46:10;98950.50;;;11.93;100.00
2681;BME280;1350;42.134;24.708;2023-04-20T01:48:37;98952.75;;;11.99;100.00
2681;BME280;1350;42.134;24.708;2023-04-20T01:51:03;98948.28;;;11.99;100.00
2681;BME280;1350;42.134;24.708;2023-04-20T01:53:30;98939.88;;;11.93;100.00
2681;BME280;1350;42.134;24.708;2023-04-20T01:55:58;98945.19;;;11.93;100.00
2681;BME280;1350;42.134;24.708;2023-04-20T01:58:26;98951.16;;;11.96;100.00
2681;BME280;1350;42.134;24.708;2023-04-20T02:00:53;98948.59;;;11.95;100.00
2681;BME280;1350;42.134;24.708;2023-04-20T02:03:19;98941.38;;;11.97;100.00
2681;BME280;1350;42.134;24.708;2023-04-20T02:05:46;98937.88;;;11.96;100.00
2681;BME280;1350;42.134;24.708;2023-04-20T02:08:13;98942.75;;;11.89;100.00
2681;BME280;1350;42.134;24.708;2023-04-20T02:10:39;98945.94;;;11.95;100.00
2681;BME280;1350;42.134;24.708;2023-04-20T02:13:06;98943.56;;;11.90;100.00
2681;BME280;1350;42.134;24.708;2023-04-20T02:15:34;98942.94;;;11.86;100.00
2681;BME280;1350;42.134;24.708;2023-04-20T02:18:01;98947.84;;;11.93;100.00
2681;BME280;1350;42.134;24.708;2023-04-20T02:20:28;98949.19;;;11.85;100.00
2681;BME280;1350;42.134;24.708;2023-04-20T02:22:55;98949.19;;;11.85;100.00
2681;BME280;1350;42.134;24.708;2023-04-20T02:25:22;98954.31;;;11.88;100.00
2681;BME280;1350;42.134;24.708;2023-04-20T02:27:48;98953.16;;;11.93;100.00
2681;BME280;1350;42.134;24.708;2023-04-20T02:30:15;98955.50;;;11.97;100.00
2681;BME280;1350;42.134;24.708;2023-04-20T02:32:43;98952.00;;;11.97;100.00
2681;BME280;1350;42.134;24.708;2023-04-20T02:35:10;98954.66;;;11.97;100.00
2681;BME280;1350;42.134;24.708;2023-04-20T02:37:36;98959.50;;;11.90;100.00
2681;BME280;1350;42.134;24.708;2023-04-20T02:40:04;98953.06;;;11.94;100.00
2681;BME280;1350;42.134;24.708;2023-04-20T02:42:31;98951.38;;;11.93;100.00
2681;BME280;1350;42.134;24.708;2023-04-20T02:44:58;98956.97;;;11.88;100.00
2681;BME280;1350;42.134;24.708;2023-04-20T02:47:25;98960.13;;;11.81;100.00
2681;BME280;1350;42.134;24.708;2023-04-20T02:49:53;98964.63;;;11.80;100.00
2681;BME280;1350;42.134;24.708;2023-04-20T02:52:31;98959.41;;;11.79;100.00
2681;BME280;1350;42.134;24.708;2023-04-20T02:55:12;98961.81;;;11.69;100.00
2681;BME280;1350;42.134;24.708;2023-04-20T02:57:39;98961.72;;;11.71;100.00
2681;BME280;1350;42.134;24.708;2023-04-20T03:00:07;98963.50;;;11.70;100.00
2681;BME280;1350;42.134;24.708;2023-04-20T03:02:35;98958.97;;;11.72;100.00
2681;BME280;1350;42.134;24.708;2023-04-20T03:05:04;98961.41;;;11.75;100.00
2681;BME280;1350;42.134;24.708;2023-04-20T03:07:31;98966.28;;;11.69;100.00
2681;BME280;1350;42.134;24.708;2023-04-20T03:09:58;98961.63;;;11.72;100.00
2681;BME280;1350;42.134;24.708;2023-04-20T03:12:25;98960.97;;;11.69;100.00
2681;BME280;1350;42.134;24.708;2023-04-20T03:14:52;98962.47;;;11.73;100.00
2681;BME280;1350;42.134;24.708;2023-04-20T03:17:18;98963.31;;;11.73;100.00
2681;BME280;1350;42.134;24.708;2023-04-20T03:19:45;98962.59;;;11.71;100.00
2681;BME280;1350;42.134;24.708;2023-04-20T03:22:13;98959.06;;;11.71;100.00
2681;BME280;1350;42.134;24.708;2023-04-20T03:24:40;98961.88;;;11.82;100.00
2681;BME280;1350;42.134;24.708;2023-04-20T03:27:07;98960.13;;;11.81;100.00
2681;BME280;1350;42.134;24.708;2023-04-20T03:29:33;98958.56;;;11.78;100.00
2681;BME280;1350;42.134;24.708;2023-04-20T03:32:00;98955.25;;;11.75;100.00
2681;BME280;1350;42.134;24.708;2023-04-20T03:34:27;98959.50;;;11.77;100.00
2681;BME280;1350;42.134;24.708;2023-04-20T03:36:53;98957.69;;;11.78;100.00
2681;BME280;1350;42.134;24.708;2023-04-20T03:39:23;98959.41;;;11.79;100.00
2681;BME280;1350;42.134;24.708;2023-04-20T03:41:49;98945.06;;;11.81;100.00
2681;BME280;1350;42.134;24.708;2023-04-20T03:44:16;98956.25;;;11.86;100.00
2681;BME280;1350;42.134;24.708;2023-04-20T03:46:43;98958.91;;;11.86;100.00
2681;BME280;1350;42.134;24.708;2023-04-20T03:49:10;98963.47;;;11.97;100.00
2681;BME280;1350;42.134;24.708;2023-04-20T03:51:36;98959.22;;;12.07;100.00
2681;BME280;1350;42.134;24.708;2023-04-20T03:54:03;98964.13;;;12.26;100.00
2681;BME280;1350;42.134;24.708;2023-04-20T03:56:32;98964.56;;;12.45;100.00
2681;BME280;1350;42.134;24.708;2023-04-20T03:58:59;98973.09;;;12.50;100.00
2681;BME280;1350;42.134;24.708;2023-04-20T04:01:26;98979.44;;;12.60;100.00
2681;BME280;1350;42.134;24.708;2023-04-20T04:03:53;98975.84;;;12.61;100.00
2681;BME280;1350;42.134;24.708;2023-04-20T04:06:20;98978.06;;;12.67;100.00
2681;BME280;1350;42.134;24.708;2023-04-20T04:08:46;98987.22;;;12.63;100.00
2681;BME280;1350;42.134;24.708;2023-04-20T04:11:13;98985.19;;;12.66;100.00
2681;BME280;1350;42.134;24.708;2023-04-20T04:13:41;98980.41;;;12.71;100.00
2681;BME280;1350;42.134;24.708;2023-04-20T04:16:08;98974.75;;;12.88;100.00
2681;BME280;1350;42.134;24.708;2023-04-20T04:18:34;98979.09;;;13.14;100.00
2681;BME280;1350;42.134;24.708;2023-04-20T04:21:01;98985.50;;;13.35;100.00
2681;BME280;1350;42.134;24.708;2023-04-20T04:23:28;98982.63;;;13.62;100.00
2681;BME280;1350;42.134;24.708;2023-04-20T04:25:55;98986.16;;;13.97;100.00
2681;BME280;1350;42.134;24.708;2023-04-20T04:28:23;98981.81;;;14.31;100.00
2681;BME280;1350;42.134;24.708;2023-04-20T04:30:51;98972.88;;;14.54;100.00
2681;BME280;1350;42.134;24.708;2023-04-20T04:33:18;98973.59;;;14.67;100.00
2681;BME280;1350;42.134;24.708;2023-04-20T04:35:46;98983.78;;;14.95;100.00
2681;BME280;1350;42.134;24.708;2023-04-20T04:38:13;98989.50;;;14.90;100.00
2681;BME280;1350;42.134;24.708;2023-04-20T04:40:43;98991.56;;;14.87;100.00
2681;BME280;1350;42.134;24.708;2023-04-20T04:43:10;99001.38;;;15.08;100.00
2681;BME280;1350;42.134;24.708;2023-04-20T04:45:37;98993.47;;;15.51;100.00
2681;BME280;1350;42.134;24.708;2023-04-20T04:48:06;99000.78;;;15.81;100.00
2681;BME280;1350;42.134;24.708;2023-04-20T04:50:34;98992.72;;;15.60;98.24
2681;BME280;1350;42.134;24.708;2023-04-20T04:53:01;98998.56;;;15.54;99.52
2681;BME280;1350;42.134;24.708;2023-04-20T04:55:27;98990.09;;;15.38;99.24
2681;BME280;1350;42.134;24.708;2023-04-20T04:57:54;98987.31;;;15.17;100.00
2681;BME280;1350;42.134;24.708;2023-04-20T05:00:22;98988.19;;;14.85;100.00
2681;BME280;1350;42.134;24.708;2023-04-20T05:02:49;98985.63;;;14.61;100.00
2681;BME280;1350;42.134;24.708;2023-04-20T05:05:19;98984.75;;;14.61;100.00
2681;BME280;1350;42.134;24.708;2023-04-20T05:07:46;98987.19;;;14.64;100.00
2681;BME280;1350;42.134;24.708;2023-04-20T05:10:13;98987.44;;;14.72;100.00
2681;BME280;1350;42.134;24.708;2023-04-20T05:12:40;98985.38;;;14.64;100.00
2681;BME280;1350;42.134;24.708;2023-04-20T05:15:07;98991.81;;;14.62;100.00
2681;BME280;1350;42.134;24.708;2023-04-20T05:17:34;98985.88;;;14.80;100.00
2681;BME280;1350;42.134;24.708;2023-04-20T05:20:01;98986.34;;;14.85;100.00
2681;BME280;1350;42.134;24.708;2023-04-20T05:22:31;98992.53;;;14.97;100.00
2681;BME280;1350;42.134;24.708;2023-04-20T05:24:58;98992.06;;;14.92;100.00
2681;BME280;1350;42.134;24.708;2023-04-20T05:27:25;98991.94;;;14.93;100.00
2681;BME280;1350;42.134;24.708;2023-04-20T05:29:52;98995.34;;;14.95;100.00
2681;BME280;1350;42.134;24.708;2023-04-20T05:32:18;99001.16;;;14.89;100.00
2681;BME280;1350;42.134;24.708;2023-04-20T05:34:45;99000.91;;;14.92;100.00
2681;BME280;1350;42.134;24.708;2023-04-20T05:37:12;99000.53;;;14.75;100.00
2681;BME280;1350;42.134;24.708;2023-04-20T05:39:40;99001.16;;;15.00;100.00
2681;BME280;1350;42.134;24.708;2023-04-20T05:42:07;98998.59;;;15.10;100.00
2681;BME280;1350;42.134;24.708;2023-04-20T05:44:34;99005.28;;;15.15;96.30
2681;BME280;1350;42.134;24.708;2023-04-20T05:47:01;99004.78;;;15.21;95.96
2681;BME280;1350;42.134;24.708;2023-04-20T05:49:30;99004.50;;;15.58;95.68
2681;BME280;1350;42.134;24.708;2023-04-20T05:51:57;99004.31;;;15.81;92.61
2681;BME280;1350;42.134;24.708;2023-04-20T05:54:24;99002.78;;;15.99;92.44
2681;BME280;1350;42.134;24.708;2023-04-20T05:56:54;99005.06;;;16.04;90.13
2681;BME280;1350;42.134;24.708;2023-04-20T05:59:21;98999.09;;;15.80;87.85
2681;BME280;1350;42.134;24.708;2023-04-20T06:01:48;98999.59;;;15.74;87.67
2681;BME280;1350;42.134;24.708;2023-04-20T06:04:15;99007.34;;;15.88;87.80
2681;BME280;1350;42.134;24.708;2023-04-20T06:06:42;99001.13;;;15.87;86.56
2681;BME280;1350;42.134;24.708;2023-04-20T06:09:08;99005.06;;;16.04;85.04
2681;BME280;1350;42.134;24.708;2023-04-20T06:11:35;99006.59;;;16.17;84.33
2681;BME280;1350;42.134;24.708;2023-04-20T06:14:03;99009.53;;;16.35;82.50
2681;BME280;1350;42.134;24.708;2023-04-20T06:16:30;99004.16;;;16.46;82.89
2681;BME280;1350;42.134;24.708;2023-04-20T06:18:57;99005.13;;;16.65;82.22
2681;BME280;1350;42.134;24.708;2023-04-20T06:21:23;99003.28;;;16.96;81.35
2681;BME280;1350;42.134;24.708;2023-04-20T06:23:51;98997.44;;;17.12;82.02
2681;BME280;1350;42.134;24.708;2023-04-20T06:26:18;99000.69;;;17.45;78.47
2681;BME280;1350;42.134;24.708;2023-04-20T06:28:45;98999.91;;;17.83;75.68
2681;BME280;1350;42.134;24.708;2023-04-20T06:31:14;99003.19;;;18.15;73.18
2681;BME280;1350;42.134;24.708;2023-04-20T06:33:41;99004.00;;;18.73;73.78
2681;BME280;1350;42.134;24.708;2023-04-20T06:36:08;99004.81;;;19.19;69.89
2681;BME280;1350;42.134;24.708;2023-04-20T06:38:34;99006.41;;;20.11;67.30
2681;BME280;1350;42.134;24.708;2023-04-20T06:41:01;98998.47;;;20.09;62.58
2681;BME280;1350;42.134;24.708;2023-04-20T06:43:28;99000.56;;;20.33;64.10
2681;BME280;1350;42.134;24.708;2023-04-20T06:45:55;99004.56;;;20.29;62.43
2681;BME280;1350;42.134;24.708;2023-04-20T06:48:23;99005.81;;;20.17;62.27
2681;BME280;1350;42.134;24.708;2023-04-20T06:50:50;99012.44;;;20.66;60.19
2681;BME280;1350;42.134;24.708;2023-04-20T06:53:16;99005.53;;;20.63;59.40
2681;BME280;1350;42.134;24.708;2023-04-20T06:55:43;98997.47;;;20.46;59.88
2681;BME280;1350;42.134;24.708;2023-04-20T06:58:10;98997.91;;;21.10;58.58
2681;BME280;1350;42.134;24.708;2023-04-20T07:00:36;98999.03;;;21.25;56.84
2681;BME280;1350;42.134;24.708;2023-04-20T07:03:03;98995.59;;;20.89;53.95
2681;BME280;1350;42.134;24.708;2023-04-20T07:05:31;99004.38;;;20.48;54.70
2681;BME280;1350;42.134;24.708;2023-04-20T07:07:58;99005.06;;;20.68;54.90
2681;BME280;1350;42.134;24.708;2023-04-20T07:10:25;99005.78;;;20.78;55.15
2681;BME280;1350;42.134;24.708;2023-04-20T07:12:52;99008.38;;;20.87;55.45
2681;BME280;1350;42.134;24.708;2023-04-20T07:15:18;99004.16;;;21.86;55.04
2681;BME280;1350;42.134;24.708;2023-04-20T07:17:45;99010.22;;;21.80;53.40
2681;BME280;1350;42.134;24.708;2023-04-20T07:20:12;99004.34;;;21.50;53.25
2681;BME280;1350;42.134;24.708;2023-04-20T07:22:40;98996.88;;;21.36;55.17
2681;BME280;1350;42.134;24.708;2023-04-20T07:25:08;99003.25;;;21.27;57.72
2681;BME280;1350;42.134;24.708;2023-04-20T07:27:36;98997.34;;;21.73;57.51
2681;BME280;1350;42.134;24.708;2023-04-20T07:30:04;99002.13;;;21.38;54.16
2681;BME280;1350;42.134;24.708;2023-04-20T07:32:31;99000.34;;;21.21;58.42
2681;BME280;1350;42.134;24.708;2023-04-20T07:34:58;99002.00;;;21.14;57.79
2681;BME280;1350;42.134;24.708;2023-04-20T07:37:26;99003.09;;;20.52;55.98
2681;BME280;1350;42.134;24.708;2023-04-20T07:39:54;98996.84;;;20.52;60.21
2681;BME280;1350;42.134;24.708;2023-04-20T07:42:21;99003.88;;;20.70;61.27
2681;BME280;1350;42.134;24.708;2023-04-20T07:44:47;99002.19;;;20.95;58.09
2681;BME280;1350;42.134;24.708;2023-04-20T07:47:14;99007.59;;;20.95;57.20
2681;BME280;1350;42.134;24.708;2023-04-20T07:49:42;99011.06;;;20.62;56.92
2681;BME280;1350;42.134;24.708;2023-04-20T07:52:09;99005.47;;;20.38;59.42
2681;BME280;1350;42.134;24.708;2023-04-20T07:54:37;99003.53;;;19.95;59.61
2681;BME280;1350;42.134;24.708;2023-04-20T07:57:05;99007.50;;;20.36;60.13
2681;BME280;1350;42.134;24.708;2023-04-20T07:59:33;99002.78;;;20.38;60.02
2681;BME280;1350;42.134;24.708;2023-04-20T08:02:01;99000.94;;;20.38;59.06
2681;BME280;1350;42.134;24.708;2023-04-20T08:04:28;99001.38;;;20.51;59.61
2681;BME280;1350;42.134;24.708;2023-04-20T08:06:55;98999.31;;;20.45;58.78
2681;BME280;1350;42.134;24.708;2023-04-20T08:09:22;98994.44;;;20.23;59.83
2681;BME280;1350;42.134;24.708;2023-04-20T08:11:49;98994.81;;;19.83;59.18
2681;BME280;1350;42.134;24.708;2023-04-20T08:14:17;99002.84;;;19.48;60.86
2681;BME280;1350;42.134;24.708;2023-04-20T08:16:44;98993.25;;;19.46;62.54
2681;BME280;1350;42.134;24.708;2023-04-20T08:19:11;98992.19;;;19.56;61.60
2681;BME280;1350;42.134;24.708;2023-04-20T08:21:38;98995.78;;;19.47;61.87
2681;BME280;1350;42.134;24.708;2023-04-20T08:24:06;98986.63;;;19.85;65.13
2681;BME280;1350;42.134;24.708;2023-04-20T08:26:33;98982.66;;;20.24;63.19
2681;BME280;1350;42.134;24.708;2023-04-20T08:29:01;98982.34;;;20.27;62.29
2681;BME280;1350;42.134;24.708;2023-04-20T08:31:29;98979.31;;;20.48;61.02
2681;BME280;1350;42.134;24.708;2023-04-20T08:33:56;98990.31;;;20.54;60.47
2681;BME280;1350;42.134;24.708;2023-04-20T08:36:23;98980.31;;;20.72;59.56
2681;BME280;1350;42.134;24.708;2023-04-20T08:38:53;98967.91;;;21.05;61.01
2681;BME280;1350;42.134;24.708;2023-04-20T08:41:20;98973.34;;;20.87;56.46
2681;BME280;1350;42.134;24.708;2023-04-20T08:43:47;98976.44;;;21.26;59.27
2681;BME280;1350;42.134;24.708;2023-04-20T08:46:16;98970.84;;;21.19;57.10
2681;BME280;1350;42.134;24.708;2023-04-20T08:48:45;98976.66;;;21.40;57.25
2681;BME280;1350;42.134;24.708;2023-04-20T08:51:14;98979.09;;;21.59;56.49
2681;BME280;1350;42.134;24.708;2023-04-20T08:53:40;98975.78;;;21.32;57.32
2681;BME280;1350;42.134;24.708;2023-04-20T08:56:07;98975.63;;;21.00;55.48
2681;BME280;1350;42.134;24.708;2023-04-20T08:58:34;98962.06;;;20.92;57.18
2681;BME280;1350;42.134;24.708;2023-04-20T09:01:03;98969.78;;;20.87;54.82
2681;BME280;1350;42.134;24.708;2023-04-20T09:03:31;98966.00;;;20.72;57.26
2681;BME280;1350;42.134;24.708;2023-04-20T09:05:59;98963.75;;;20.93;57.62
2681;BME280;1350;42.134;24.708;2023-04-20T09:08:33;98966.69;;;21.33;57.12
2681;BME280;1350;42.134;24.708;2023-04-20T09:11:01;98970.81;;;21.61;56.61
2681;BME280;1350;42.134;24.708;2023-04-20T09:13:27;98973.31;;;22.04;55.35
2681;BME280;1350;42.134;24.708;2023-04-20T09:15:54;98970.13;;;22.25;53.92
2681;BME280;1350;42.134;24.708;2023-04-20T09:18:21;98971.47;;;22.61;54.30
2681;BME280;1350;42.134;24.708;2023-04-20T09:20:49;98967.44;;;22.65;51.99
2681;BME280;1350;42.134;24.708;2023-04-20T09:23:18;98963.53;;;22.03;51.13
2681;BME280;1350;42.134;24.708;2023-04-20T09:25:49;98961.16;;;21.92;53.39
2681;BME280;1350;42.134;24.708;2023-04-20T09:28:17;98967.06;;;21.96;53.15
2681;BME280;1350;42.134;24.708;2023-04-20T09:30:46;98959.84;;;21.54;53.54
2681;BME280;1350;42.134;24.708;2023-04-20T09:33:15;98961.19;;;21.50;51.89
2681;BME280;1350;42.134;24.708;2023-04-20T09:35:44;98952.75;;;21.53;51.62
2681;BME280;1350;42.134;24.708;2023-04-20T09:38:15;98944.09;;;21.76;52.62
2681;BME280;1350;42.134;24.708;2023-04-20T09:40:43;98956.25;;;21.88;52.00
2681;BME280;1350;42.134;24.708;2023-04-20T09:43:18;98949.84;;;21.89;51.71
2681;BME280;1350;42.134;24.708;2023-04-20T09:45:45;98948.16;;;21.96;52.31
2681;BME280;1350;42.134;24.708;2023-04-20T09:48:12;98950.47;;;21.75;51.25
2681;BME280;1350;42.134;24.708;2023-04-20T09:50:43;98955.09;;;21.48;52.93
2681;BME280;1350;42.134;24.708;2023-04-20T09:53:12;98947.56;;;21.60;52.35
2681;BME280;1350;42.134;24.708;2023-04-20T09:55:39;98952.69;;;21.87;51.73
2681;BME280;1350;42.134;24.708;2023-04-20T09:58:07;98954.59;;;22.11;50.67
2681;BME280;1350;42.134;24.708;2023-04-20T10:00:34;98946.81;;;22.00;52.23
2681;BME280;1350;42.134;24.708;2023-04-20T10:03:01;98942.44;;;21.99;51.20
2681;BME280;1350;42.134;24.708;2023-04-20T10:05:32;98934.47;;;21.81;50.07
2681;BME280;1350;42.134;24.708;2023-04-20T10:08:00;98929.56;;;21.93;50.47
2681;BME280;1350;42.134;24.708;2023-04-20T10:10:27;98928.50;;;21.61;48.66
2681;BME280;1350;42.134;24.708;2023-04-20T10:12:55;98929.41;;;21.28;49.55
2681;BME280;1350;42.134;24.708;2023-04-20T10:15:35;98927.00;;;21.17;51.50
2681;BME280;1350;42.134;24.708;2023-04-20T10:18:13;98918.75;;;21.11;51.21
2681;BME280;1350;42.134;24.708;2023-04-20T10:20:40;98919.56;;;21.11;51.63
2681;BME280;1350;42.134;24.708;2023-04-20T10:23:08;98916.88;;;21.11;52.63
2681;BME280;1350;42.134;24.708;2023-04-20T10:25:36;98908.84;;;21.27;52.83
2681;BME280;1350;42.134;24.708;2023-04-20T10:28:04;98916.56;;;21.22;50.47
2681;BME280;1350;42.134;24.708;2023-04-20T10:30:36;98911.50;;;21.19;50.93
2681;BME280;1350;42.134;24.708;2023-04-20T10:33:04;98907.00;;;21.28;50.74
2681;BME280;1350;42.134;24.708;2023-04-20T10:35:43;98914.03;;;21.21;51.38
2681;BME280;1350;42.134;24.708;2023-04-20T10:38:10;98918.75;;;21.19;52.05
2681;BME280;1350;42.134;24.708;2023-04-20T10:40:37;98913.91;;;21.30;51.47
2681;BME280;1350;42.134;24.708;2023-04-20T10:43:04;98910.63;;;21.52;51.78
2681;BME280;1350;42.134;24.708;2023-04-20T10:45:44;98921.31;;;21.28;49.77
2681;BME280;1350;42.134;24.708;2023-04-20T10:48:11;98912.88;;;21.23;48.97
2681;BME280;1350;42.134;24.708;2023-04-20T10:50:38;98907.53;;;21.39;48.74
2681;BME280;1350;42.134;24.708;2023-04-20T10:53:05;98907.56;;;21.47;48.79
2681;BME280;1350;42.134;24.708;2023-04-20T10:55:31;98909.47;;;21.71;48.39
2681;BME280;1350;42.134;24.708;2023-04-20T10:57:58;98903.22;;;21.70;48.52
2681;BME280;1350;42.134;24.708;2023-04-20T11:00:27;98910.59;;;21.60;47.26
2681;BME280;1350;42.134;24.708;2023-04-20T11:02:56;98913.75;;;21.32;47.80
2681;BME280;1350;42.134;24.708;2023-04-20T11:05:25;98910.66;;;21.11;48.57
2681;BME280;1350;42.134;24.708;2023-04-20T11:07:53;98931.06;;;20.88;48.91
2681;BME280;1350;42.134;24.708;2023-04-20T11:10:21;98928.78;;;21.01;51.95
2681;BME280;1350;42.134;24.708;2023-04-20T11:12:49;98925.31;;;20.83;58.25
2681;BME280;1350;42.134;24.708;2023-04-20T11:15:16;98928.13;;;20.48;62.41
2681;BME280;1350;42.134;24.708;2023-04-20T11:17:43;98927.78;;;19.90;64.74
2681;BME280;1350;42.134;24.708;2023-04-20T11:20:14;98931.00;;;19.14;75.90
2681;BME280;1350;42.134;24.708;2023-04-20T11:22:42;98933.28;;;19.09;74.31
2681;BME280;1350;42.134;24.708;2023-04-20T11:25:11;98933.63;;;18.96;72.04
2681;BME280;1350;42.134;24.708;2023-04-20T11:27:38;98931.22;;;18.93;84.04
2681;BME280;1350;42.134;24.708;2023-04-20T11:30:06;98920.50;;;18.84;75.30
2681;BME280;1350;42.134;24.708;2023-04-20T11:32:34;98911.66;;;18.74;64.31
2681;BME280;1350;42.134;24.708;2023-04-20T11:35:04;98897.06;;;18.76;66.00
2681;BME280;1350;42.134;24.708;2023-04-20T11:37:33;98891.97;;;18.83;66.50
2681;BME280;1350;42.134;24.708;2023-04-20T11:40:01;98888.88;;;18.78;67.96
2681;BME280;1350;42.134;24.708;2023-04-20T11:42:30;98887.81;;;18.88;66.21
2681;BME280;1350;42.134;24.708;2023-04-20T11:44:57;98878.59;;;19.00;65.82
2681;BME280;1350;42.134;24.708;2023-04-20T11:47:24;98871.38;;;19.28;66.01
2681;BME280;1350;42.134;24.708;2023-04-20T11:49:51;98870.41;;;19.46;68.13
2681;BME280;1350;42.134;24.708;2023-04-20T11:52:18;98866.78;;;19.55;60.85
2681;BME280;1350;42.134;24.708;2023-04-20T11:54:46;98861.84;;;19.68;60.39
2681;BME280;1350;42.134;24.708;2023-04-20T11:57:13;98861.75;;;19.78;62.92
2681;BME280;1350;42.134;24.708;2023-04-20T11:59:40;98854.78;;;19.85;62.46
2681;BME280;1350;42.134;24.708;2023-04-20T12:02:07;98855.03;;;19.99;57.60
2681;BME280;1350;42.134;24.708;2023-04-20T12:04:34;98849.72;;;20.07;55.64
2681;BME280;1350;42.134;24.708;2023-04-20T12:07:00;98852.03;;;20.20;55.85
2681;BME280;1350;42.134;24.708;2023-04-20T12:09:27;98850.06;;;20.30;52.90
2681;BME280;1350;42.134;24.708;2023-04-20T12:11:56;98848.34;;;20.55;54.69
2681;BME280;1350;42.134;24.708;2023-04-20T12:14:23;98844.09;;;20.78;52.72
2681;BME280;1350;42.134;24.708;2023-04-20T12:16:50;98843.09;;;20.79;50.70
2681;BME280;1350;42.134;24.708;2023-04-20T12:19:17;98843.28;;;20.85;49.58
2681;BME280;1350;42.134;24.708;2023-04-20T12:21:44;98833.19;;;20.87;49.76
2681;BME280;1350;42.134;24.708;2023-04-20T12:24:12;98830.00;;;20.92;50.09
2681;BME280;1350;42.134;24.708;2023-04-20T12:26:39;98826.50;;;20.99;49.13
2681;BME280;1350;42.134;24.708;2023-04-20T12:29:07;98821.47;;;21.04;51.06
2681;BME280;1350;42.134;24.708;2023-04-20T12:31:33;98821.44;;;20.96;48.75
2681;BME280;1350;42.134;24.708;2023-04-20T12:34:01;98827.03;;;21.03;49.90
2681;BME280;1350;42.134;24.708;2023-04-20T12:36:28;98816.44;;;21.17;51.38
2681;BME280;1350;42.134;24.708;2023-04-20T12:38:56;98818.47;;;21.23;50.50
2681;BME280;1350;42.134;24.708;2023-04-20T12:41:23;98810.56;;;21.14;49.55
2681;BME280;1350;42.134;24.708;2023-04-20T12:43:50;98809.69;;;21.13;51.16
2681;BME280;1350;42.134;24.708;2023-04-20T12:46:18;98805.84;;;21.24;50.81
2681;BME280;1350;42.134;24.708;2023-04-20T12:48:45;98809.88;;;21.20;51.28
2681;BME280;1350;42.134;24.708;2023-04-20T12:51:12;98802.13;;;21.17;50.92
2681;BME280;1350;42.134;24.708;2023-04-20T12:53:39;98811.88;;;21.02;50.89
2681;BME280;1350;42.134;24.708;2023-04-20T12:56:06;98801.22;;;21.00;50.71
2681;BME280;1350;42.134;24.708;2023-04-20T12:58:33;98798.88;;;21.05;51.04
2681;BME280;1350;42.134;24.708;2023-04-20T13:01:00;98810.22;;;21.17;49.74
2681;BME280;1350;42.134;24.708;2023-04-20T13:03:28;98800.44;;;21.24;50.74
2681;BME280;1350;42.134;24.708;2023-04-20T13:05:55;98799.94;;;21.28;48.81
2681;BME280;1350;42.134;24.708;2023-04-20T13:08:21;98797.94;;;21.30;49.49